Time;durP1;ratioP1;P1;durP2;ratioP2;P2;SDS_P1;SDS_P2;PMS_P1;PMS_P2;Temp;Humidity;BMP_temperature;BMP_pressure;BME280_temperature;BME280_humidity;BME280_pressure;Samples;Min_cycle;Max_cycle;Signal;HPM_P1;HPM_P2
2022/01/18 00:00:08;;;;;;;;;;;3.90;99.90;;;;;;5020799;28;19914;-67
2022/01/18 00:02:34;;;;;;;;;;;3.80;99.90;;;;;;4987759;28;20149;-67
2022/01/18 00:05:00;;;;;;;;;;;3.70;99.90;;;;;;4987110;28;19932;-67
2022/01/18 00:07:26;;;;;;;;;;;3.70;99.90;;;;;;5004194;28;19988;-67
2022/01/18 00:09:51;;;;;;;;;;;3.60;99.90;;;;;;5005111;28;19916;-67
2022/01/18 00:17:54;;;;;;;;;;;3.40;99.90;;;;;;4972846;28;19910;-67
2022/01/18 00:20:30;;;;;;;;;;;3.30;99.90;;;;;;5005340;28;19997;-67
2022/01/18 00:22:55;;;;;;;;;;;3.20;99.90;;;;;;5004297;28;19910;-67
2022/01/18 00:25:21;;;;;;;;;;;3.20;99.90;;;;;;5004873;28;20081;-67
2022/01/18 00:27:48;;;;;;;;;;;3.30;99.90;;;;;;5005092;28;20197;-67
2022/01/18 00:33:38;;;;;;;;;;;3.30;99.90;;;;;;5004885;28;19913;-67
2022/01/18 00:35:44;;;;;;;;;;;3.30;99.90;;;;;;5004210;28;19972;-67
2022/01/18 00:38:44;;;;;;;;;;;3.30;99.90;;;;;;5003862;28;19909;-67
2022/01/18 00:41:10;;;;;;;;;;;3.40;99.90;;;;;;5003902;28;19914;-67
2022/01/18 00:43:35;;;;;;;;;;;3.40;99.90;;;;;;5003839;28;19941;-67
2022/01/18 00:46:01;;;;;;;;;;;3.50;99.90;;;;;;5003347;28;19972;-67
2022/01/18 00:48:32;;;;;;;;;;;3.50;99.90;;;;;;5002400;28;19941;-67
2022/01/18 00:50:57;;;;;;;;;;;3.60;99.90;;;;;;5003416;28;20283;-67
2022/01/18 00:53:25;;;;;;;;;;;3.50;99.90;;;;;;5003718;28;20319;-67
2022/01/18 00:56:11;;;;;;;;;;;3.50;99.90;;;;;;5003363;28;19972;-67
2022/01/18 00:58:39;;;;;;;;;;;3.60;99.90;;;;;;5003491;28;19909;-67
2022/01/18 01:01:05;;;;;;;;;;;3.50;99.90;;;;;;5001300;28;19914;-67
2022/01/18 01:03:31;;;;;;;;;;;3.50;99.90;;;;;;5003183;28;19960;-67
2022/01/18 01:05:56;;;;;;;;;;;3.60;99.90;;;;;;5002084;28;19928;-67
2022/01/18 01:08:22;;;;;;;;;;;3.70;99.90;;;;;;5001528;28;20105;-67
2022/01/18 01:10:48;;;;;;;;;;;3.70;99.90;;;;;;5002170;28;19914;-67
2022/01/18 01:13:14;;;;;;;;;;;3.60;99.90;;;;;;4986098;28;20268;-67
2022/01/18 01:16:01;;;;;;;;;;;3.60;99.90;;;;;;5003168;28;20097;-67
2022/01/18 01:45:23;;;;;;;;;;;3.70;99.90;;;;;;5002555;28;19941;-67
2022/01/18 01:47:51;;;;;;;;;;;3.70;99.90;;;;;;4985313;28;19910;-67
2022/01/18 01:50:19;;;;;;;;;;;3.60;99.90;;;;;;5002474;28;19933;-67
2022/01/18 01:52:46;;;;;;;;;;;3.60;99.90;;;;;;5002670;28;19910;-67
2022/01/18 01:55:12;;;;;;;;;;;3.70;99.90;;;;;;4968943;28;19917;-66
2022/01/18 01:57:37;;;;;;;;;;;3.80;99.90;;;;;;5002479;28;19967;-67
2022/01/18 02:00:05;;;;;;;;;;;3.80;99.90;;;;;;5002609;28;19918;-67
2022/01/18 02:02:31;;;;;;;;;;;3.90;99.90;;;;;;5000573;28;19917;-67
2022/01/18 02:04:57;;;;;;;;;;;3.90;99.90;;;;;;5002397;28;19910;-67
2022/01/18 02:07:22;;;;;;;;;;;3.90;99.90;;;;;;5002334;28;19909;-67
2022/01/18 02:09:48;;;;;;;;;;;3.90;99.60;;;;;;5001834;28;19910;-67
2022/01/18 02:12:17;;;;;;;;;;;3.70;99.90;;;;;;5002247;28;19934;-67
2022/01/18 02:14:46;;;;;;;;;;;3.70;99.90;;;;;;4984922;28;20017;-67
2022/01/18 02:22:45;;;;;;;;;;;3.70;99.90;;;;;;5002106;28;19917;-67
2022/01/18 02:25:10;;;;;;;;;;;3.70;99.90;;;;;;5002051;28;19909;-66
2022/01/18 02:27:36;;;;;;;;;;;3.60;99.90;;;;;;5002389;28;20271;-67
2022/01/18 02:30:02;;;;;;;;;;;3.60;99.90;;;;;;5005294;28;19932;-67
2022/01/18 02:32:28;;;;;;;;;;;3.70;99.90;;;;;;5005037;28;20089;-67
2022/01/18 02:34:54;;;;;;;;;;;3.70;99.90;;;;;;5004961;28;19980;-67
2022/01/18 02:37:19;;;;;;;;;;;3.70;99.90;;;;;;5005983;28;19916;-67
2022/01/18 02:39:45;;;;;;;;;;;3.70;99.80;;;;;;5006345;28;19914;-67
2022/01/18 02:42:11;;;;;;;;;;;3.70;99.60;;;;;;5004901;28;20117;-67
2022/01/18 02:44:37;;;;;;;;;;;3.70;99.70;;;;;;5005898;28;20029;-67
2022/01/18 02:47:03;;;;;;;;;;;3.80;99.50;;;;;;5006084;28;20283;-67
2022/01/18 02:49:29;;;;;;;;;;;3.80;99.50;;;;;;5004484;28;19918;-67
2022/01/18 02:51:56;;;;;;;;;;;3.80;99.50;;;;;;5005857;28;19941;-67
2022/01/18 02:54:22;;;;;;;;;;;3.80;99.50;;;;;;5004275;28;19910;-67
2022/01/18 02:57:02;;;;;;;;;;;3.80;99.50;;;;;;5005731;28;19910;-67
2022/01/18 03:00:25;;;;;;;;;;;3.80;99.60;;;;;;5004742;28;19914;-67
2022/01/18 03:05:10;;;;;;;;;;;3.70;99.70;;;;;;5004329;28;19925;-66
2022/01/18 03:07:36;;;;;;;;;;;3.60;99.60;;;;;;5005871;28;19922;-67
2022/01/18 03:10:03;;;;;;;;;;;3.60;99.70;;;;;;5004441;28;19917;-67
2022/01/18 03:12:29;;;;;;;;;;;3.60;99.90;;;;;;5004279;28;19913;-70
2022/01/18 03:14:54;;;;;;;;;;;3.50;99.90;;;;;;4988194;28;19960;-70
2022/01/18 03:17:20;;;;;;;;;;;3.60;99.90;;;;;;5005517;28;20185;-70
2022/01/18 03:19:46;;;;;;;;;;;3.60;99.90;;;;;;5004235;28;19972;-70
2022/01/18 03:22:12;;;;;;;;;;;3.50;99.90;;;;;;5003397;28;19910;-70
2022/01/18 03:29:54;;;;;;;;;;;3.50;99.90;;;;;;5004482;28;19917;-70
2022/01/18 03:32:20;;;;;;;;;;;3.50;99.80;;;;;;5005517;28;19910;-70
2022/01/18 03:34:45;;;;;;;;;;;3.50;99.90;;;;;;4987122;28;19994;-69
2022/01/18 03:37:11;;;;;;;;;;;3.50;99.90;;;;;;5005238;28;19916;-67
2022/01/18 03:39:37;;;;;;;;;;;3.50;99.80;;;;;;5004878;28;19949;-67
2022/01/18 03:42:36;;;;;;;;;;;3.50;99.80;;;;;;5003730;28;19910;-67
2022/01/18 03:44:49;;;;;;;;;;;3.50;99.70;;;;;;5004599;28;19917;-67
2022/01/18 03:47:16;;;;;;;;;;;3.60;99.60;;;;;;5005086;28;19909;-67
2022/01/18 03:49:42;;;;;;;;;;;3.60;99.60;;;;;;5003559;28;19920;-67
2022/01/18 03:52:07;;;;;;;;;;;3.50;99.90;;;;;;5004885;28;19909;-67
2022/01/18 03:54:41;;;;;;;;;;;3.50;99.90;;;;;;5004872;28;19913;-67
2022/01/18 03:57:07;;;;;;;;;;;3.40;99.90;;;;;;5004713;28;19914;-67
2022/01/18 03:59:33;;;;;;;;;;;3.40;99.90;;;;;;5003700;28;19920;-67
2022/01/18 04:01:59;;;;;;;;;;;3.40;99.90;;;;;;5004827;28;19909;-67
2022/01/18 04:04:24;;;;;;;;;;;3.40;99.90;;;;;;5004376;28;20084;-67
2022/01/18 04:06:50;;;;;;;;;;;3.40;99.90;;;;;;5004340;28;20228;-67
2022/01/18 04:09:16;;;;;;;;;;;3.30;99.90;;;;;;5004353;28;19978;-67
2022/01/18 04:11:42;;;;;;;;;;;3.30;99.90;;;;;;4986807;28;20004;-67
2022/01/18 04:14:08;;;;;;;;;;;3.30;99.90;;;;;;4986121;28;19927;-67
2022/01/18 04:16:42;;;;;;;;;;;3.40;99.90;;;;;;5003172;28;20201;-67
2022/01/18 04:25:46;;;;;;;;;;;3.30;99.90;;;;;;5004280;28;19941;-67
2022/01/18 04:27:32;;;;;;;;;;;3.40;99.90;;;;;;4989355;28;19986;-67
2022/01/18 04:29:57;;;;;;;;;;;3.40;99.90;;;;;;5003357;28;19917;-67
2022/01/18 04:32:23;;;;;;;;;;;3.40;99.90;;;;;;5004219;28;19914;-67
2022/01/18 04:34:49;;;;;;;;;;;3.40;99.90;;;;;;5003910;28;19922;-67
2022/01/18 04:37:14;;;;;;;;;;;3.40;99.90;;;;;;5001834;28;20230;-67
2022/01/18 04:39:42;;;;;;;;;;;3.40;99.90;;;;;;4986674;28;19914;-67
2022/01/18 04:42:15;;;;;;;;;;;3.40;99.90;;;;;;5003802;28;19988;-67
2022/01/18 04:50:09;;;;;;;;;;;3.40;99.90;;;;;;5003395;28;19932;-68
2022/01/18 04:52:35;;;;;;;;;;;3.40;99.60;;;;;;5001384;28;20216;-67
2022/01/18 04:55:03;;;;;;;;;;;3.50;99.40;;;;;;4985867;28;19909;-67
2022/01/18 05:00:13;;;;;;;;;;;3.50;99.50;;;;;;5002735;28;20105;-67
2022/01/18 05:02:39;;;;;;;;;;;3.50;99.70;;;;;;5002263;28;20196;-67
2022/01/18 05:05:04;;;;;;;;;;;3.50;99.70;;;;;;5003020;28;19937;-70
2022/01/18 05:07:30;;;;;;;;;;;3.50;99.70;;;;;;5003083;28;19910;-67
2022/01/18 05:09:56;;;;;;;;;;;3.50;99.80;;;;;;5003385;28;19910;-67
2022/01/18 05:23:26;;;;;;;;;;;3.50;99.90;;;;;;5002378;28;19956;-69
2022/01/18 05:25:52;;;;;;;;;;;3.60;99.80;;;;;;5002647;28;20260;-69
2022/01/18 05:28:18;;;;;;;;;;;3.70;99.50;;;;;;5003146;28;19910;-69
2022/01/18 05:30:44;;;;;;;;;;;3.60;99.40;;;;;;5002946;28;19957;-69
2022/01/18 05:33:09;;;;;;;;;;;3.70;99.50;;;;;;5003016;28;19910;-69
2022/01/18 05:35:35;;;;;;;;;;;3.70;99.40;;;;;;5000613;28;20013;-69
2022/01/18 05:38:01;;;;;;;;;;;3.60;99.60;;;;;;4985530;28;19910;-69
2022/01/18 05:40:27;;;;;;;;;;;3.50;99.80;;;;;;5002838;28;19925;-69
2022/01/18 05:42:53;;;;;;;;;;;3.50;99.90;;;;;;5002762;28;19909;-69
2022/01/18 05:45:18;;;;;;;;;;;3.60;99.90;;;;;;5001394;28;19980;-69
2022/01/18 05:47:44;;;;;;;;;;;3.50;99.90;;;;;;5001331;28;19909;-69
2022/01/18 05:50:11;;;;;;;;;;;3.50;99.90;;;;;;5002860;28;19925;-69
2022/01/18 05:52:37;;;;;;;;;;;3.50;99.90;;;;;;5001541;28;19945;-69
2022/01/18 05:55:03;;;;;;;;;;;3.60;99.90;;;;;;5002755;28;19910;-69
2022/01/18 05:57:29;;;;;;;;;;;3.50;99.90;;;;;;5001554;28;19910;-69
2022/01/18 06:00:01;;;;;;;;;;;3.50;99.90;;;;;;5001422;28;19957;-69
2022/01/18 06:07:40;;;;;;;;;;;3.50;99.90;;;;;;5002335;28;20009;-69
2022/01/18 06:10:06;;;;;;;;;;;3.50;99.90;;;;;;4994057;28;20201;-69
2022/01/18 06:12:32;;;;;;;;;;;3.50;99.90;;;;;;4984843;28;19977;-69
2022/01/18 06:14:58;;;;;;;;;;;3.50;99.90;;;;;;5000255;28;19916;-69
2022/01/18 06:17:24;;;;;;;;;;;3.50;99.90;;;;;;4985209;28;20169;-70
2022/01/18 06:19:50;;;;;;;;;;;3.50;99.90;;;;;;4984207;28;19913;-69
2022/01/18 06:22:16;;;;;;;;;;;3.50;99.90;;;;;;5001232;28;19924;-70
2022/01/18 06:24:41;;;;;;;;;;;3.50;99.90;;;;;;5000484;28;19941;-68
2022/01/18 06:27:07;;;;;;;;;;;3.50;99.90;;;;;;5001020;28;19977;-69
2022/01/18 06:29:33;;;;;;;;;;;3.50;99.90;;;;;;4985141;28;19932;-69
2022/01/18 06:31:59;;;;;;;;;;;3.60;99.90;;;;;;4992478;28;19913;-70
2022/01/18 06:34:24;;;;;;;;;;;3.50;99.90;;;;;;5001851;28;19981;-69
2022/01/18 06:36:51;;;;;;;;;;;3.60;99.90;;;;;;5001018;28;19914;-69
2022/01/18 06:39:17;;;;;;;;;;;3.50;99.90;;;;;;5001216;28;19956;-69
2022/01/18 06:41:45;;;;;;;;;;;3.50;99.80;;;;;;5025933;23;19924;-72
2022/01/18 06:44:11;;;;;;;;;;;3.50;99.90;;;;;;5022158;28;19989;-72
2022/01/18 06:46:37;;;;;;;;;;;3.50;99.90;;;;;;5022320;28;19910;-72
2022/01/18 06:49:02;;;;;;;;;;;3.50;99.80;;;;;;5021107;28;19979;-72
2022/01/18 06:51:28;;;;;;;;;;;3.50;99.70;;;;;;5022120;28;20196;-73
2022/01/18 06:53:54;;;;;;;;;;;3.50;99.80;;;;;;5022095;28;19909;-73
2022/01/18 06:56:20;;;;;;;;;;;3.50;99.80;;;;;;5021002;28;19909;-72
2022/01/18 06:58:46;;;;;;;;;;;3.50;99.90;;;;;;5021150;28;19913;-71
2022/01/18 07:01:12;;;;;;;;;;;3.50;99.70;;;;;;5004695;28;19963;-73
2022/01/18 07:03:38;;;;;;;;;;;3.50;99.60;;;;;;5020801;28;20224;-73
2022/01/18 07:06:04;;;;;;;;;;;3.60;99.70;;;;;;5004217;28;20197;-73
2022/01/18 07:08:30;;;;;;;;;;;3.60;99.20;;;;;;5022033;28;19949;-73
2022/01/18 07:10:56;;;;;;;;;;;3.60;99.20;;;;;;5022001;28;19910;-73
2022/01/18 07:13:22;;;;;;;;;;;3.60;99.00;;;;;;5020953;28;19910;-73
2022/01/18 07:15:48;;;;;;;;;;;3.60;99.10;;;;;;5022603;28;19972;-73
2022/01/18 07:18:14;;;;;;;;;;;3.50;98.90;;;;;;5025404;28;19913;-73
2022/01/18 07:20:41;;;;;;;;;;;3.60;98.90;;;;;;5020421;28;20115;-73
2022/01/18 07:23:12;;;;;;;;;;;3.60;99.00;;;;;;5004581;28;19909;-72
2022/01/18 07:25:44;;;;;;;;;;;3.60;99.00;;;;;;5004347;28;19963;-73
2022/01/18 07:28:13;;;;;;;;;;;3.60;99.10;;;;;;5020244;28;20276;-73
2022/01/18 07:30:40;;;;;;;;;;;3.60;99.10;;;;;;5020955;28;19910;-72
2022/01/18 07:33:05;;;;;;;;;;;3.50;99.10;;;;;;5004481;28;19917;-72
2022/01/18 07:35:33;;;;;;;;;;;3.60;99.20;;;;;;5004035;28;19909;-72
2022/01/18 07:38:00;;;;;;;;;;;3.50;99.10;;;;;;5004406;28;20387;-72
2022/01/18 07:40:27;;;;;;;;;;;3.50;98.90;;;;;;5012698;28;19993;-72
2022/01/18 07:42:53;;;;;;;;;;;3.50;99.00;;;;;;5024497;28;19914;-72
2022/01/18 07:45:19;;;;;;;;;;;3.50;99.00;;;;;;5025461;28;19913;-73
2022/01/18 07:47:44;;;;;;;;;;;3.60;98.90;;;;;;5024456;28;19909;-73
2022/01/18 07:50:10;;;;;;;;;;;3.60;98.80;;;;;;5024410;28;19988;-73
2022/01/18 07:52:36;;;;;;;;;;;3.70;98.60;;;;;;5007666;28;19971;-72
2022/01/18 07:55:03;;;;;;;;;;;3.70;98.40;;;;;;5024381;28;19937;-74
2022/01/18 07:57:29;;;;;;;;;;;3.80;98.20;;;;;;5008181;28;19959;-74
2022/01/18 07:59:55;;;;;;;;;;;3.80;98.30;;;;;;5025293;28;19910;-71
2022/01/18 08:02:20;;;;;;;;;;;3.80;98.20;;;;;;5007715;28;20105;-73
2022/01/18 08:04:46;;;;;;;;;;;3.80;98.10;;;;;;5023479;28;19985;-73
2022/01/18 08:07:12;;;;;;;;;;;3.90;98.10;;;;;;5024027;28;19956;-72
2022/01/18 08:09:37;;;;;;;;;;;3.90;98.10;;;;;;5019931;28;19910;-73
2022/01/18 08:12:04;;;;;;;;;;;4.00;98.10;;;;;;5004415;28;19925;-73
2022/01/18 08:14:32;;;;;;;;;;;4.00;98.20;;;;;;5020205;28;19910;-73
2022/01/18 08:17:01;;;;;;;;;;;4.00;98.10;;;;;;4988208;28;19969;-72
2022/01/18 08:19:28;;;;;;;;;;;4.00;98.30;;;;;;5003955;28;19949;-73
2022/01/18 08:21:53;;;;;;;;;;;4.00;98.20;;;;;;5020094;28;19924;-73
2022/01/18 08:24:19;;;;;;;;;;;4.00;97.60;;;;;;5005091;28;19910;-74
2022/01/18 08:26:45;;;;;;;;;;;4.00;97.80;;;;;;5018134;28;19909;-71
2022/01/18 08:29:12;;;;;;;;;;;4.00;97.80;;;;;;5026760;28;20195;-72
2022/01/18 08:31:39;;;;;;;;;;;4.00;98.00;;;;;;5043854;28;19910;-73
2022/01/18 08:34:05;;;;;;;;;;;4.00;98.10;;;;;;5024312;28;19916;-73
2022/01/18 08:36:30;;;;;;;;;;;4.20;97.90;;;;;;5024233;28;19909;-73
2022/01/18 08:38:56;;;;;;;;;;;4.20;97.60;;;;;;5023656;28;19914;-72
2022/01/18 08:41:22;;;;;;;;;;;4.20;97.70;;;;;;5023466;28;19955;-73
2022/01/18 08:43:48;;;;;;;;;;;4.10;98.00;;;;;;5024592;28;20205;-73
2022/01/18 08:46:14;;;;;;;;;;;4.00;98.10;;;;;;5006873;28;19917;-73
2022/01/18 08:48:39;;;;;;;;;;;4.10;98.20;;;;;;5024477;28;19986;-73
2022/01/18 08:51:05;;;;;;;;;;;4.00;98.40;;;;;;5023388;28;19910;-73
2022/01/18 08:53:31;;;;;;;;;;;4.10;98.70;;;;;;5023050;28;20104;-73
2022/01/18 08:55:57;;;;;;;;;;;4.10;98.50;;;;;;5022886;28;19921;-73
2022/01/18 08:58:23;;;;;;;;;;;4.10;98.60;;;;;;5024309;28;19952;-73
2022/01/18 09:00:49;;;;;;;;;;;4.20;98.60;;;;;;5023201;28;19910;-73
2022/01/18 09:03:15;;;;;;;;;;;4.30;98.30;;;;;;5024013;28;19910;-73
2022/01/18 09:05:43;;;;;;;;;;;4.40;97.60;;;;;;5023903;28;20086;-73
2022/01/18 09:08:11;;;;;;;;;;;4.50;97.60;;;;;;5018452;28;20105;-73
2022/01/18 09:10:37;;;;;;;;;;;4.70;97.70;;;;;;5004364;28;20224;-73
2022/01/18 09:13:03;;;;;;;;;;;4.80;97.10;;;;;;5003101;28;19917;-73
2022/01/18 09:15:29;;;;;;;;;;;4.90;97.20;;;;;;4986699;28;19976;-73
2022/01/18 09:17:55;;;;;;;;;;;5.00;97.00;;;;;;5002986;28;19914;-73
2022/01/18 09:20:20;;;;;;;;;;;5.20;96.80;;;;;;5004293;28;19909;-73
2022/01/18 09:22:48;;;;;;;;;;;5.20;96.40;;;;;;5002975;28;19949;-73
2022/01/18 09:25:17;;;;;;;;;;;5.40;95.80;;;;;;5002694;28;19910;-73
2022/01/18 09:27:43;;;;;;;;;;;5.50;95.70;;;;;;5003134;28;20162;-73
2022/01/18 09:30:09;;;;;;;;;;;5.50;95.70;;;;;;5004085;28;19910;-73
2022/01/18 09:32:35;;;;;;;;;;;5.60;95.10;;;;;;5002983;28;19952;-73
2022/01/18 09:35:01;;;;;;;;;;;5.50;94.70;;;;;;5003848;28;19917;-73
2022/01/18 09:37:26;;;;;;;;;;;5.30;94.50;;;;;;5016229;28;20212;-73
2022/01/18 09:39:53;;;;;;;;;;;5.30;95.00;;;;;;5022789;28;20228;-73
2022/01/18 09:42:19;;;;;;;;;;;5.40;94.90;;;;;;5021965;28;19914;-73
2022/01/18 09:44:48;;;;;;;;;;;5.50;95.00;;;;;;5022359;28;20212;-73
2022/01/18 09:47:14;;;;;;;;;;;5.50;94.90;;;;;;5023500;28;19916;-73
2022/01/18 09:49:40;;;;;;;;;;;5.50;94.90;;;;;;5022509;28;19936;-73
2022/01/18 09:52:05;;;;;;;;;;;5.70;94.90;;;;;;5021360;28;19916;-73
2022/01/18 09:54:32;;;;;;;;;;;5.80;94.90;;;;;;5023059;28;19948;-73
2022/01/18 09:56:58;;;;;;;;;;;5.70;94.30;;;;;;5005864;28;19917;-73
2022/01/18 09:59:23;;;;;;;;;;;5.60;94.50;;;;;;5023241;28;19910;-73
2022/01/18 10:01:49;;;;;;;;;;;5.70;94.90;;;;;;5022175;28;19913;-72
2022/01/18 10:04:17;;;;;;;;;;;6.00;95.20;;;;;;5021738;28;19910;-73
2022/01/18 10:06:47;;;;;;;;;;;6.30;94.80;;;;;;5018187;28;19910;-73
2022/01/18 10:09:13;;;;;;;;;;;6.60;94.40;;;;;;5018795;28;19941;-72
2022/01/18 10:12:08;;;;;;;;;;;6.80;93.50;;;;;;5002426;28;19909;-72
2022/01/18 10:14:35;;;;;;;;;;;7.10;93.50;;;;;;5010367;28;19972;-72
2022/01/18 10:17:01;;;;;;;;;;;7.30;92.80;;;;;;5021758;28;19910;-72
2022/01/18 10:19:47;;;;;;;;;;;7.30;92.20;;;;;;5021960;28;19917;-73
2022/01/18 10:22:16;;;;;;;;;;;7.30;91.50;;;;;;5021841;28;19945;-72
2022/01/18 10:24:42;;;;;;;;;;;7.20;91.30;;;;;;5022843;28;19947;-72
2022/01/18 10:27:07;;;;;;;;;;;7.20;91.50;;;;;;5022958;28;19909;-72
2022/01/18 10:29:37;;;;;;;;;;;7.30;91.00;;;;;;5021464;28;19910;-72
2022/01/18 10:32:41;;;;;;;;;;;7.40;90.60;;;;;;5005794;28;19916;-72
2022/01/18 10:37:25;;;;;;;;;;;7.90;89.60;;;;;;5022832;28;19952;-73
2022/01/18 10:40:08;;;;;;;;;;;8.00;89.20;;;;;;5004939;28;19910;-73
2022/01/18 10:42:49;;;;;;;;;;;8.10;88.70;;;;;;5022795;28;19913;-72
2022/01/18 10:45:31;;;;;;;;;;;8.10;85.40;;;;;;5022487;28;19984;-72
2022/01/18 10:48:10;;;;;;;;;;;8.10;86.50;;;;;;5022885;28;20231;-73
2022/01/18 10:50:38;;;;;;;;;;;7.90;87.80;;;;;;5023610;28;20162;-72
2022/01/18 10:53:15;;;;;;;;;;;7.70;90.20;;;;;;5009339;28;19917;-72
2022/01/18 10:55:41;;;;;;;;;;;7.70;90.20;;;;;;5025167;28;19910;-73
2022/01/18 10:58:14;;;;;;;;;;;7.70;89.20;;;;;;5009426;28;19996;-73
2022/01/18 11:00:39;;;;;;;;;;;7.50;89.50;;;;;;5025798;28;19956;-73
2022/01/18 11:03:07;;;;;;;;;;;7.40;89.70;;;;;;5026757;28;20203;-73
2022/01/18 11:05:34;;;;;;;;;;;7.40;88.30;;;;;;5026806;28;20205;-72
2022/01/18 11:08:02;;;;;;;;;;;7.50;88.00;;;;;;5021845;28;20009;-73
2022/01/18 11:10:32;;;;;;;;;;;7.60;88.50;;;;;;5006550;28;20261;-73
2022/01/18 11:13:11;;;;;;;;;;;7.60;86.50;;;;;;5007065;28;19909;-73
2022/01/18 11:15:41;;;;;;;;;;;7.50;86.90;;;;;;5006263;28;20473;-73
2022/01/18 11:18:17;;;;;;;;;;;7.50;88.10;;;;;;5006876;28;19914;-73
2022/01/18 11:20:47;;;;;;;;;;;7.50;88.80;;;;;;5005806;28;20094;-73
2022/01/18 11:23:13;;;;;;;;;;;7.40;88.90;;;;;;5021422;28;19910;-72
2022/01/18 11:25:39;;;;;;;;;;;7.10;89.40;;;;;;5006280;28;19933;-73
2022/01/18 11:28:06;;;;;;;;;;;7.00;90.30;;;;;;5006598;28;19909;-73
2022/01/18 11:30:34;;;;;;;;;;;6.70;90.10;;;;;;5005362;28;19909;-73
2022/01/18 11:33:02;;;;;;;;;;;6.60;90.90;;;;;;5021533;28;20112;-72
2022/01/18 11:35:44;;;;;;;;;;;6.50;91.10;;;;;;5005035;28;20224;-72
2022/01/18 11:38:34;;;;;;;;;;;6.40;91.20;;;;;;5021165;28;19914;-72
2022/01/18 11:41:02;;;;;;;;;;;6.50;91.10;;;;;;5004086;28;19909;-71
2022/01/18 11:43:39;;;;;;;;;;;6.60;91.30;;;;;;5021062;28;19913;-73
2022/01/18 11:46:32;;;;;;;;;;;6.80;91.10;;;;;;5020162;28;20171;-73
2022/01/18 11:49:27;;;;;;;;;;;7.10;90.80;;;;;;5004244;28;19910;-72
2022/01/18 11:51:58;;;;;;;;;;;7.50;90.40;;;;;;5021197;28;19917;-72
2022/01/18 11:54:57;;;;;;;;;;;7.90;88.50;;;;;;5019996;28;19914;-73
2022/01/18 11:57:22;;;;;;;;;;;8.00;87.60;;;;;;5005423;28;19938;-73
2022/01/18 11:59:58;;;;;;;;;;;8.00;87.80;;;;;;5005747;28;19909;-73
2022/01/18 12:02:44;;;;;;;;;;;7.70;89.00;;;;;;5004288;28;19910;-73
2022/01/18 12:05:19;;;;;;;;;;;7.50;90.30;;;;;;5011606;28;20394;-72
2022/01/18 12:07:47;;;;;;;;;;;7.20;90.50;;;;;;5004551;28;20113;-72
2022/01/18 12:10:32;;;;;;;;;;;7.10;90.50;;;;;;5004332;28;19952;-72
2022/01/18 12:12:59;;;;;;;;;;;7.10;90.90;;;;;;5006382;28;19980;-72
2022/01/18 12:15:29;;;;;;;;;;;6.80;91.10;;;;;;5023556;28;20196;-73
2022/01/18 12:17:56;;;;;;;;;;;6.90;91.60;;;;;;5024445;28;19914;-72
2022/01/18 12:20:34;;;;;;;;;;;6.90;91.70;;;;;;5023846;28;19909;-73
2022/01/18 12:23:06;;;;;;;;;;;7.00;91.20;;;;;;5025202;28;19932;-73
2022/01/18 12:25:36;;;;;;;;;;;7.80;90.50;;;;;;5023671;28;19913;-73
2022/01/18 12:34:41;;;;;;;;;;;8.10;84.70;;;;;;5024906;28;19918;-73
2022/01/18 12:37:07;;;;;;;;;;;7.80;86.60;;;;;;5024777;28;20090;-73
2022/01/18 12:45:06;;;;;;;;;;;8.00;88.30;;;;;;4996077;28;19921;-67
2022/01/18 12:47:36;;;;;;;;;;;9.20;83.20;;;;;;5002710;28;19916;-67
2022/01/18 12:50:07;;;;;;;;;;;10.40;76.30;;;;;;5010312;28;20224;-67
2022/01/18 12:52:58;;;;;;;;;;;11.10;69.90;;;;;;5022086;28;20021;-67
2022/01/18 12:55:24;;;;;;;;;;;10.60;71.10;;;;;;5021513;28;19918;-67
2022/01/18 12:58:01;;;;;;;;;;;9.60;73.90;;;;;;5022945;28;20262;-67
2022/01/18 13:00:26;;;;;;;;;;;9.00;78.30;;;;;;5006134;28;19947;-67
2022/01/18 13:02:52;;;;;;;;;;;8.60;81.80;;;;;;5023310;28;19910;-69
2022/01/18 13:05:18;;;;;;;;;;;8.10;83.40;;;;;;5021791;28;19916;-67
2022/01/18 13:07:52;;;;;;;;;;;7.80;86.20;;;;;;5022374;28;20204;-67
2022/01/18 13:10:18;;;;;;;;;;;7.40;88.70;;;;;;5022269;28;19909;-67
2022/01/18 13:12:45;;;;;;;;;;;7.10;90.30;;;;;;5021548;28;19932;-66
2022/01/18 13:15:13;;;;;;;;;;;7.00;91.00;;;;;;5022852;28;19920;-66
2022/01/18 13:23:22;;;;;;;;;;;6.40;92.10;;;;;;5023005;28;20168;-69
2022/01/18 13:25:50;;;;;;;;;;;6.20;92.70;;;;;;5021351;28;19916;-69
2022/01/18 13:28:16;;;;;;;;;;;6.10;93.30;;;;;;5021882;28;19917;-69
2022/01/18 13:30:42;;;;;;;;;;;6.10;93.60;;;;;;5005485;28;19913;-69
2022/01/18 13:33:08;;;;;;;;;;;6.10;94.10;;;;;;5022809;28;19936;-69
2022/01/18 13:35:33;;;;;;;;;;;6.10;94.40;;;;;;5022643;28;19941;-69
2022/01/18 13:38:00;;;;;;;;;;;6.10;94.90;;;;;;5021404;28;19913;-68
2022/01/18 13:40:27;;;;;;;;;;;6.20;94.40;;;;;;5022485;28;19953;-69
2022/01/18 13:43:06;;;;;;;;;;;6.20;94.40;;;;;;5021357;28;19917;-68
2022/01/18 13:45:32;;;;;;;;;;;6.10;94.50;;;;;;5022399;28;19932;-66
2022/01/18 13:48:00;;;;;;;;;;;6.10;94.60;;;;;;5021128;28;19909;-66
2022/01/18 13:50:41;;;;;;;;;;;6.10;94.50;;;;;;5022447;28;20234;-66
2022/01/18 13:53:08;;;;;;;;;;;6.10;94.60;;;;;;5021188;28;19909;-66
2022/01/18 13:55:36;;;;;;;;;;;6.10;94.40;;;;;;5022027;28;20104;-66
2022/01/18 13:58:01;;;;;;;;;;;6.20;94.00;;;;;;5003052;28;19913;-66
2022/01/18 14:00:28;;;;;;;;;;;6.20;94.00;;;;;;5022365;28;19980;-66
2022/01/18 14:02:54;;;;;;;;;;;6.20;94.30;;;;;;5020951;28;19976;-65
2022/01/18 14:05:21;;;;;;;;;;;6.20;94.20;;;;;;5020777;28;19909;-65
2022/01/18 14:07:48;;;;;;;;;;;6.30;94.30;;;;;;5004864;28;19914;-69
2022/01/18 14:10:13;;;;;;;;;;;6.40;94.20;;;;;;5022382;28;19910;-67
2022/01/18 14:12:39;;;;;;;;;;;6.50;94.10;;;;;;5020750;28;19940;-66
2022/01/18 14:15:05;;;;;;;;;;;6.60;93.90;;;;;;5019446;28;20196;-67
2022/01/18 14:17:31;;;;;;;;;;;6.80;93.50;;;;;;5022077;28;19913;-66
2022/01/18 14:20:05;;;;;;;;;;;6.90;92.90;;;;;;5022008;28;19921;-66
2022/01/18 14:22:34;;;;;;;;;;;6.80;93.10;;;;;;5020844;28;20088;-66
2022/01/18 14:25:04;;;;;;;;;;;6.70;93.20;;;;;;5020505;28;19909;-66
2022/01/18 14:27:32;;;;;;;;;;;6.90;93.40;;;;;;5009106;28;19960;-67
2022/01/18 14:29:59;;;;;;;;;;;7.10;92.40;;;;;;5025092;28;19916;-67
2022/01/18 14:32:29;;;;;;;;;;;7.10;92.60;;;;;;5026549;28;19917;-66
2022/01/18 14:35:00;;;;;;;;;;;7.10;92.30;;;;;;5026138;28;19910;-66
2022/01/18 14:37:40;;;;;;;;;;;7.00;92.30;;;;;;5025195;28;19924;-67
2022/01/18 14:40:18;;;;;;;;;;;6.90;92.20;;;;;;5024841;28;19948;-66
2022/01/18 14:42:46;;;;;;;;;;;6.80;91.90;;;;;;5024108;28;19955;-66
2022/01/18 14:47:43;;;;;;;;;;;6.60;92.30;;;;;;5024679;28;20278;-67
2022/01/18 14:50:11;;;;;;;;;;;6.50;92.40;;;;;;5025702;28;19909;-66
2022/01/18 14:52:37;;;;;;;;;;;6.30;92.90;;;;;;5026025;28;20258;-67
2022/01/18 14:55:04;;;;;;;;;;;6.20;93.30;;;;;;5025593;28;19917;-67
2022/01/18 14:57:31;;;;;;;;;;;5.90;93.80;;;;;;5024049;28;19914;-67
2022/01/18 14:59:57;;;;;;;;;;;5.80;94.10;;;;;;5025448;28;20185;-67
2022/01/18 15:02:24;;;;;;;;;;;5.80;94.10;;;;;;5008033;28;19932;-67
2022/01/18 15:04:50;;;;;;;;;;;5.70;94.30;;;;;;5025040;28;19996;-66
2022/01/18 15:07:16;;;;;;;;;;;5.50;94.90;;;;;;5025392;28;19913;-67
2022/01/18 15:09:41;;;;;;;;;;;5.40;95.20;;;;;;5024252;28;19921;-65
2022/01/18 15:12:07;;;;;;;;;;;5.40;95.40;;;;;;5024921;28;19909;-66
2022/01/18 15:14:33;;;;;;;;;;;5.40;95.50;;;;;;5018619;28;20174;-67
2022/01/18 15:16:59;;;;;;;;;;;5.40;95.70;;;;;;5003144;28;20150;-67
2022/01/18 15:19:25;;;;;;;;;;;5.40;95.90;;;;;;4997444;28;19921;-66
2022/01/18 15:21:51;;;;;;;;;;;5.50;95.80;;;;;;5005448;28;19917;-66
2022/01/18 15:24:16;;;;;;;;;;;5.50;95.80;;;;;;5004102;28;20186;-66
2022/01/18 15:26:42;;;;;;;;;;;5.40;96.00;;;;;;5005248;28;19913;-66
2022/01/18 15:29:08;;;;;;;;;;;5.40;96.10;;;;;;5005310;28;19937;-65
2022/01/18 15:31:33;;;;;;;;;;;5.40;96.10;;;;;;4996883;28;19933;-66
2022/01/18 15:33:59;;;;;;;;;;;5.40;96.10;;;;;;5023548;28;19909;-67
2022/01/18 15:36:25;;;;;;;;;;;5.40;96.20;;;;;;5024031;28;19913;-67
2022/01/18 15:38:51;;;;;;;;;;;5.30;96.30;;;;;;5013566;28;19921;-66
2022/01/18 15:41:17;;;;;;;;;;;5.30;96.30;;;;;;5005039;28;19997;-66
2022/01/18 15:43:43;;;;;;;;;;;5.30;96.40;;;;;;5023993;28;19924;-67
2022/01/18 15:46:09;;;;;;;;;;;5.20;96.40;;;;;;5024301;28;19920;-66
2022/01/18 15:48:35;;;;;;;;;;;5.20;96.40;;;;;;5023218;28;19937;-67
2022/01/18 15:51:00;;;;;;;;;;;5.20;96.50;;;;;;5021407;28;19909;-66
2022/01/18 15:53:26;;;;;;;;;;;5.30;96.30;;;;;;5001731;28;20362;-68
2022/01/18 15:55:52;;;;;;;;;;;5.30;96.00;;;;;;4996604;28;19982;-68
2022/01/18 15:58:19;;;;;;;;;;;5.30;95.90;;;;;;4987332;28;19997;-68
2022/01/18 16:00:45;;;;;;;;;;;5.30;96.00;;;;;;4990242;28;19917;-68
2022/01/18 16:03:11;;;;;;;;;;;5.30;95.90;;;;;;5004001;28;19952;-68
2022/01/18 16:05:37;;;;;;;;;;;5.30;95.70;;;;;;5003936;28;19947;-68
2022/01/18 16:08:06;;;;;;;;;;;5.20;95.80;;;;;;5004104;28;19925;-68
2022/01/18 16:10:32;;;;;;;;;;;5.20;96.00;;;;;;5004412;28;20198;-68
2022/01/18 16:12:58;;;;;;;;;;;5.20;96.00;;;;;;5003980;28;19922;-67
2022/01/18 16:15:23;;;;;;;;;;;5.20;96.10;;;;;;5013064;28;19914;-67
2022/01/18 16:17:49;;;;;;;;;;;5.10;96.30;;;;;;5023560;28;19988;-68